Time;durP1;ratioP1;P1;durP2;ratioP2;P2;SDS_P1;SDS_P2;PMS_P1;PMS_P2;Temp;Humidity;BMP_temperature;BMP_pressure;BME280_temperature;BME280_humidity;BME280_pressure;Samples;Min_cycle;Max_cycle;Signal;HPM_P1;HPM_P2
2024/04/09 00:01:24;;;;;;;0.70;0.70;;;;;;;9.67;76.96;97382.94;5439873;26;20017;-63
2024/04/09 00:03:51;;;;;;;0.70;0.70;;;;;;;9.37;77.81;97340.28;5441857;26;20084;-63
2024/04/09 00:06:19;;;;;;;0.80;0.80;;;;;;;9.75;76.68;97395.81;5442012;26;20465;-64
2024/04/09 00:08:47;;;;;;;0.70;0.70;;;;;;;9.30;77.27;97317.97;5439995;26;20003;-63
2024/04/09 00:11:22;;;;;;;0.70;0.70;;;;;;;9.61;78.04;97387.09;5439574;26;20030;-63
2024/04/09 00:13:51;;;;;;;0.63;0.63;;;;;;;9.55;78.02;97380.25;5434733;26;20003;-64
2024/04/09 00:16:27;;;;;;;0.70;0.70;;;;;;;9.36;78.62;97385.66;5404331;26;20033;-64
2024/04/09 00:18:57;;;;;;;0.70;0.70;;;;;;;8.75;79.25;97299.50;5406560;26;20008;-63
2024/04/09 00:21:26;;;;;;;0.70;0.70;;;;;;;9.32;78.82;97379.25;5441482;26;20079;-64
2024/04/09 00:23:56;;;;;;;0.70;0.70;;;;;;;9.33;78.64;97377.25;5441444;26;20035;-64
2024/04/09 00:26:24;;;;;;;0.63;0.63;;;;;;;9.39;78.76;97376.66;5441911;26;20003;-64
2024/04/09 00:28:51;;;;;;;0.70;0.70;;;;;;;8.84;78.11;97296.59;5442040;26;20013;-64
2024/04/09 00:31:20;;;;;;;0.70;0.70;;;;;;;9.29;78.05;97371.66;5442085;26;20326;-64
2024/04/09 00:33:47;;;;;;;0.70;0.70;;;;;;;9.27;78.05;97384.22;5439749;26;20385;-64
2024/04/09 00:36:15;;;;;;;0.70;0.70;;;;;;;9.01;78.48;97348.75;5439151;26;20017;-64
2024/04/09 00:38:42;;;;;;;0.70;0.70;;;;;;;9.27;78.22;97373.97;5441408;26;20005;-64
2024/04/09 00:41:11;;;;;;;0.70;0.70;;;;;;;9.19;78.23;97370.22;5441188;26;20011;-65
2024/04/09 00:43:38;;;;;;;0.70;0.70;;;;;;;9.12;79.25;97371.94;5441982;26;20021;-65
2024/04/09 00:46:05;;;;;;;0.73;0.73;;;;;;;9.04;80.41;97397.81;5440926;26;20015;-64
2024/04/09 00:48:34;;;;;;;0.70;0.70;;;;;;;9.07;79.66;97375.00;5441463;26;20034;-65
2024/04/09 00:51:04;;;;;;;0.70;0.70;;;;;;;8.81;79.34;97330.44;5415238;26;20012;-65
2024/04/09 00:53:32;;;;;;;0.70;0.70;;;;;;;8.71;79.80;97306.09;5405906;26;20113;-64
2024/04/09 00:56:01;;;;;;;0.60;0.60;;;;;;;9.05;80.13;97393.88;5395257;26;20896;-65
2024/04/09 00:58:28;;;;;;;0.70;0.70;;;;;;;9.01;79.24;97366.13;5405485;26;20003;-64
2024/04/09 01:00:58;;;;;;;0.63;0.63;;;;;;;8.85;79.09;97339.63;5404270;26;20006;-64
2024/04/09 01:03:26;;;;;;;0.70;0.70;;;;;;;8.95;79.73;97355.69;5405037;26;20004;-65
2024/04/09 01:05:54;;;;;;;0.70;0.70;;;;;;;8.39;79.52;97277.59;5432779;26;20004;-64
2024/04/09 01:08:21;;;;;;;0.68;0.68;;;;;;;8.21;80.33;97280.91;5406010;26;20019;-65
2024/04/09 01:10:48;;;;;;;0.60;0.60;;;;;;;8.21;81.28;97325.06;5405019;26;20066;-64
2024/04/09 01:13:15;;;;;;;0.70;0.70;;;;;;;8.57;80.86;97358.94;5405733;26;20022;-65
2024/04/09 01:15:42;;;;;;;0.60;0.60;;;;;;;8.06;81.16;97285.19;5423332;26;20007;-65
2024/04/09 01:18:09;;;;;;;0.60;0.60;;;;;;;8.45;81.90;97352.66;5469191;26;20468;-64
2024/04/09 01:20:36;;;;;;;0.65;0.65;;;;;;;8.46;81.81;97357.00;5441087;26;20437;-65
2024/04/09 01:23:03;;;;;;;0.60;0.60;;;;;;;8.46;82.04;97359.75;5440762;26;20059;-65
2024/04/09 01:25:30;;;;;;;0.70;0.70;;;;;;;8.41;82.28;97357.28;5440286;26;20457;-64
2024/04/09 01:27:57;;;;;;;0.60;0.60;;;;;;;8.41;82.41;97362.78;5440254;26;20013;-65
2024/04/09 01:30:24;;;;;;;0.60;0.60;;;;;;;8.36;81.77;97354.75;5468339;26;20366;-64
2024/04/09 01:32:51;;;;;;;0.63;0.63;;;;;;;8.21;82.10;97331.41;5440787;26;20003;-64
2024/04/09 01:35:19;;;;;;;0.60;0.60;;;;;;;8.26;82.46;97355.22;5440578;26;20071;-65
2024/04/09 01:37:46;;;;;;;0.60;0.60;;;;;;;8.26;82.35;97349.69;5440482;26;19999;-66
2024/04/09 01:40:13;;;;;;;0.60;0.60;;;;;;;8.26;82.26;97361.56;5434120;26;20007;-65
2024/04/09 01:42:41;;;;;;;0.70;0.70;;;;;;;8.27;82.50;97354.06;5440197;26;20007;-64
2024/04/09 01:45:08;;;;;;;0.60;0.60;;;;;;;7.50;83.39;97267.72;5439940;26;20003;-65
2024/04/09 01:47:36;;;;;;;0.60;0.60;;;;;;;8.09;84.16;97349.94;5440474;26;20013;-63
2024/04/09 01:50:04;;;;;;;0.60;0.60;;;;;;;8.08;83.91;97321.53;5440778;26;19999;-64
2024/04/09 01:52:31;;;;;;;0.60;0.60;;;;;;;7.94;83.60;97299.03;5440811;26;20334;-64
2024/04/09 01:54:59;;;;;;;0.70;0.70;;;;;;;8.09;83.45;97311.31;5440374;26;20075;-63
2024/04/09 01:57:32;;;;;;;0.60;0.60;;;;;;;8.45;83.19;97352.66;5468284;26;20010;-64
2024/04/09 02:00:05;;;;;;;0.60;0.60;;;;;;;8.55;82.18;97352.16;5439257;26;20014;-64
2024/04/09 02:02:34;;;;;;;0.70;0.70;;;;;;;8.41;82.25;97349.00;5437957;26;20014;-64
2024/04/09 02:05:01;;;;;;;0.60;0.60;;;;;;;8.38;82.12;97353.25;5471198;26;20009;-64
2024/04/09 02:07:28;;;;;;;0.60;0.60;;;;;;;8.42;81.83;97350.59;5471792;26;20346;-64
2024/04/09 02:09:55;;;;;;;0.70;0.70;;;;;;;8.36;81.96;97343.72;5471506;26;20040;-64
2024/04/09 02:12:21;;;;;;;0.68;0.68;;;;;;;8.49;81.51;97359.06;5441939;26;19999;-63
2024/04/09 02:14:48;;;;;;;0.70;0.70;;;;;;;8.43;81.81;97360.47;5421317;26;20027;-64
2024/04/09 02:17:15;;;;;;;0.65;0.65;;;;;;;8.44;81.53;97364.84;5406979;26;20647;-63
2024/04/09 02:19:42;;;;;;;0.60;0.60;;;;;;;8.40;81.99;97361.16;5434661;26;20053;-64
2024/04/09 02:22:09;;;;;;;0.60;0.60;;;;;;;8.30;82.37;97358.91;5406991;26;20007;-64
2024/04/09 02:24:36;;;;;;;0.60;0.60;;;;;;;8.22;82.75;97360.59;5434621;26;20007;-64
2024/04/09 02:27:03;;;;;;;0.70;0.70;;;;;;;8.26;82.06;97360.75;5407837;26;20410;-64
2024/04/09 02:29:31;;;;;;;0.60;0.60;;;;;;;8.25;82.16;97348.09;5407542;26;20543;-64
2024/04/09 02:31:58;;;;;;;0.70;0.70;;;;;;;8.30;81.67;97362.44;5407430;26;20007;-64
2024/04/09 02:34:25;;;;;;;0.70;0.70;;;;;;;8.24;81.43;97349.25;5413719;26;20480;-64
2024/04/09 02:36:52;;;;;;;0.60;0.60;;;;;;;8.17;81.34;97355.31;5443457;26;20486;-63
2024/04/09 02:39:19;;;;;;;0.55;0.55;;;;;;;8.17;80.91;97346.25;5442250;26;20094;-64
2024/04/09 02:41:46;;;;;;;0.60;0.60;;;;;;;8.02;81.44;97349.69;5441141;26;20017;-65
2024/04/09 02:44:13;;;;;;;0.60;0.60;;;;;;;7.04;82.34;97198.47;5470800;26;20030;-64
2024/04/09 02:46:40;;;;;;;0.60;0.60;;;;;;;6.99;82.81;97196.75;5428919;26;20065;-64
2024/04/09 02:49:07;;;;;;;0.60;0.60;;;;;;;7.91;84.17;97343.84;5406415;26;20357;-65
2024/04/09 02:51:35;;;;;;;0.60;0.60;;;;;;;7.92;83.80;97350.97;5407126;26;20000;-64
2024/04/09 02:54:03;;;;;;;0.60;0.60;;;;;;;7.96;83.58;97345.56;5406676;26;20519;-64
2024/04/09 02:56:30;;;;;;;0.60;0.60;;;;;;;7.97;83.76;97347.16;5435035;26;20014;-64
2024/04/09 02:58:57;;;;;;;0.60;0.60;;;;;;;8.05;83.06;97349.00;5406260;26;20419;-65
2024/04/09 03:01:24;;;;;;;0.60;0.60;;;;;;;8.02;82.68;97352.44;5406847;26;20044;-64
2024/04/09 03:03:52;;;;;;;0.60;0.60;;;;;;;7.98;82.71;97348.78;5406719;26;20678;-64
2024/04/09 03:06:19;;;;;;;0.60;0.60;;;;;;;7.64;83.54;97320.53;5407082;26;20588;-64
2024/04/09 03:08:46;;;;;;;0.60;0.60;;;;;;;7.90;83.62;97356.03;5406840;26;19999;-64
2024/04/09 03:11:14;;;;;;;0.63;0.63;;;;;;;7.86;83.38;97357.88;5407387;26;20039;-64
2024/04/09 03:13:42;;;;;;;0.60;0.60;;;;;;;7.77;82.66;97359.94;5407297;26;20389;-64
2024/04/09 03:16:21;;;;;;;0.60;0.60;;;;;;;7.71;83.61;97367.63;5438280;26;20510;-64
2024/04/09 03:18:54;;;;;;;0.60;0.60;;;;;;;7.80;82.17;97366.72;5442135;26;20018;-64
2024/04/09 03:21:22;;;;;;;0.60;0.60;;;;;;;7.66;82.74;97364.31;5470618;26;20458;-64
2024/04/09 03:23:49;;;;;;;0.60;0.60;;;;;;;7.49;82.88;97370.81;5470849;26;19999;-64
2024/04/09 03:26:16;;;;;;;0.60;0.60;;;;;;;7.50;83.59;97372.44;5441951;26;20007;-64
2024/04/09 03:28:43;;;;;;;0.60;0.60;;;;;;;7.60;83.98;97383.00;5417850;26;20443;-64
2024/04/09 03:31:10;;;;;;;0.60;0.60;;;;;;;7.57;84.64;97371.88;5406221;26;20008;-65
2024/04/09 03:33:37;;;;;;;0.60;0.60;;;;;;;7.56;85.31;97382.09;5406915;26;20011;-64
2024/04/09 03:36:08;;;;;;;0.60;0.60;;;;;;;7.59;85.23;97370.38;5433859;26;20003;-64
2024/04/09 03:38:35;;;;;;;0.60;0.60;;;;;;;7.65;85.01;97373.69;5406666;26;20938;-64
2024/04/09 03:41:06;;;;;;;0.60;0.60;;;;;;;7.71;84.23;97367.63;5405781;26;20012;-64
2024/04/09 03:43:33;;;;;;;0.60;0.60;;;;;;;7.76;83.50;97376.84;5404522;26;19996;-64
2024/04/09 03:46:04;;;;;;;0.57;0.57;;;;;;;7.65;83.79;97380.03;5405934;26;20014;-64
2024/04/09 03:48:31;;;;;;;0.60;0.60;;;;;;;7.14;84.20;97298.00;5406698;26;20032;-64
2024/04/09 03:50:58;;;;;;;0.55;0.55;;;;;;;7.72;84.63;97369.25;5406043;26;20016;-63
2024/04/09 03:53:25;;;;;;;0.60;0.60;;;;;;;7.17;84.99;97288.22;5406080;26;19995;-65
2024/04/09 03:55:56;;;;;;;0.70;0.70;;;;;;;7.62;85.45;97369.69;5405630;26;20017;-64
2024/04/09 03:58:24;;;;;;;0.60;0.60;;;;;;;7.62;85.74;97368.88;5405977;26;20010;-64
2024/04/09 04:00:58;;;;;;;0.60;0.60;;;;;;;7.40;84.77;97320.53;5405352;26;20022;-63
2024/04/09 04:03:26;;;;;;;0.60;0.60;;;;;;;7.71;84.57;97367.63;5405784;26;20011;-63
2024/04/09 04:05:53;;;;;;;0.60;0.60;;;;;;;7.76;84.57;97374.06;5432776;26;20015;-64
2024/04/09 04:08:27;;;;;;;0.60;0.60;;;;;;;7.73;84.09;97370.84;5439573;26;20042;-63
2024/04/09 04:11:05;;;;;;;0.60;0.60;;;;;;;7.81;83.94;97398.66;5469007;26;19998;-63
2024/04/09 04:13:34;;;;;;;0.65;0.65;;;;;;;7.77;83.50;97381.19;5439495;26;20010;-64
2024/04/09 04:16:05;;;;;;;0.52;0.52;;;;;;;7.75;84.07;97433.91;5405036;26;20032;-64
2024/04/09 04:18:36;;;;;;;0.60;0.60;;;;;;;7.63;85.05;97370.50;5403716;26;20015;-64
2024/04/09 04:21:05;;;;;;;0.50;0.50;;;;;;;7.35;85.61;97329.00;5396988;26;20011;-65
2024/04/09 04:23:38;;;;;;;0.60;0.60;;;;;;;7.93;86.14;97395.91;5397077;26;20008;-64
2024/04/09 04:26:07;;;;;;;0.60;0.60;;;;;;;7.99;86.19;97380.72;5401162;26;20007;-64
2024/04/09 04:28:41;;;;;;;0.60;0.60;;;;;;;8.13;84.89;97383.94;5406650;26;20016;-65
2024/04/09 04:31:12;;;;;;;0.63;0.63;;;;;;;8.17;85.12;97387.63;5405613;26;20018;-64
2024/04/09 04:33:40;;;;;;;0.60;0.60;;;;;;;8.28;84.75;97388.78;5406328;26;20040;-65
2024/04/09 04:36:10;;;;;;;0.60;0.60;;;;;;;8.32;83.51;97392.47;5405326;26;20080;-64
2024/04/09 04:38:40;;;;;;;0.60;0.60;;;;;;;8.47;82.57;97389.00;5403638;26;20470;-64
2024/04/09 04:41:07;;;;;;;0.60;0.60;;;;;;;8.56;82.57;97384.13;5404333;26;20003;-64
2024/04/09 04:43:35;;;;;;;0.60;0.60;;;;;;;8.68;81.47;97395.13;5399955;26;20617;-65
2024/04/09 04:46:06;;;;;;;0.70;0.70;;;;;;;8.91;80.60;97387.94;5432787;26;20056;-65
2024/04/09 04:48:35;;;;;;;0.70;0.70;;;;;;;8.71;79.68;97333.72;5405081;26;20320;-64
2024/04/09 04:51:03;;;;;;;0.70;0.70;;;;;;;9.33;79.00;97389.13;5404783;26;20003;-65
2024/04/09 04:53:30;;;;;;;0.70;0.70;;;;;;;9.13;78.59;97352.28;5433568;26;20470;-64
2024/04/09 04:55:58;;;;;;;0.70;0.70;;;;;;;9.67;77.86;97394.00;5432456;26;20035;-65
2024/04/09 04:58:25;;;;;;;0.70;0.70;;;;;;;9.87;76.87;97397.66;5403312;26;19999;-65
2024/04/09 05:00:52;;;;;;;0.70;0.70;;;;;;;10.05;76.39;97394.16;5404047;26;20015;-65
2024/04/09 05:03:20;;;;;;;0.73;0.73;;;;;;;9.66;75.53;97326.00;5433371;26;20423;-65
2024/04/09 05:05:47;;;;;;;0.80;0.80;;;;;;;10.15;75.60;97371.50;5404863;26;20016;-65
2024/04/09 05:08:14;;;;;;;0.70;0.70;;;;;;;10.38;75.20;97397.41;5405300;26;20080;-65
2024/04/09 05:10:41;;;;;;;0.80;0.80;;;;;;;10.39;74.83;97382.38;5404076;26;20508;-65
2024/04/09 05:13:08;;;;;;;0.77;0.77;;;;;;;10.13;74.61;97307.41;5403178;26;19999;-65
2024/04/09 05:15:35;;;;;;;0.80;0.80;;;;;;;10.71;73.65;97388.63;5427461;26;20054;-65
2024/04/09 05:18:02;;;;;;;0.80;0.80;;;;;;;10.88;73.41;97382.66;5469353;26;20354;-65
2024/04/09 05:20:29;;;;;;;0.90;0.90;;;;;;;10.42;72.56;97293.03;5440756;26;20485;-65
2024/04/09 05:22:57;;;;;;;0.80;0.80;;;;;;;10.81;72.75;97331.84;5469330;26;20530;-66
2024/04/09 05:25:27;;;;;;;0.80;0.80;;;;;;;11.05;73.16;97334.31;5440303;26;20013;-66
2024/04/09 05:27:57;;;;;;;0.90;0.90;;;;;;;11.36;72.50;97375.72;5440443;26;20011;-65
2024/04/09 05:30:23;;;;;;;0.90;0.90;;;;;;;11.40;71.86;97371.03;5439667;26;20010;-66
2024/04/09 05:32:51;;;;;;;1.00;1.00;;;;;;;11.63;71.80;97363.56;5440261;26;20003;-65
2024/04/09 05:35:21;;;;;;;1.00;1.00;;;;;;;11.84;70.23;97367.50;5440075;26;20107;-64
2024/04/09 05:37:49;;;;;;;0.90;0.90;;;;;;;12.03;69.83;97361.06;5440299;26;20019;-65
2024/04/09 05:40:17;;;;;;;0.93;0.93;;;;;;;11.35;67.94;97224.34;5443570;26;20353;-65
2024/04/09 05:42:46;;;;;;;1.00;1.00;;;;;;;12.45;67.65;97367.31;5444180;26;20006;-66
2024/04/09 05:45:16;;;;;;;1.08;1.08;;;;;;;12.61;66.48;97365.16;5443161;26;20002;-66
2024/04/09 05:47:43;;;;;;;1.00;1.00;;;;;;;12.85;65.36;97356.34;5443981;26;20015;-64
2024/04/09 05:50:10;;;;;;;1.00;1.00;;;;;;;12.75;66.16;97325.63;5471900;26;20014;-66
2024/04/09 05:52:37;;;;;;;1.00;1.00;;;;;;;13.14;65.80;97355.56;5443479;26;20329;-66
2024/04/09 05:55:05;;;;;;;1.10;1.10;;;;;;;13.18;65.62;97345.25;5471141;26;20013;-65
2024/04/09 05:57:36;;;;;;;1.02;1.02;;;;;;;13.14;65.24;97315.81;5428446;26;20027;-64
2024/04/09 06:00:19;;;;;;;1.10;1.10;;;;;;;13.52;64.83;97349.63;5377285;26;20014;-62
2024/04/09 06:02:47;;;;;;;1.20;1.20;;;;;;;13.32;63.54;97284.25;5401710;26;20593;-66
2024/04/09 06:05:18;;;;;;;1.20;1.20;;;;;;;13.83;62.37;97330.84;5389236;26;20011;-65
2024/04/09 06:07:45;;;;;;;1.20;1.20;;;;;;;14.08;62.47;97359.69;5405634;26;20361;-70
2024/04/09 06:10:15;;;;;;;1.27;1.27;;;;;;;14.18;62.21;97359.00;5431079;26;20458;-66
2024/04/09 06:12:42;;;;;;;1.17;1.17;;;;;;;13.93;61.91;97313.41;5432777;26;20008;-66
2024/04/09 06:15:10;;;;;;;1.20;1.20;;;;;;;14.44;61.71;97362.41;5379507;26;20000;-61
2024/04/09 06:17:38;;;;;;;1.02;1.02;;;;;;;14.64;60.81;97354.56;5379633;26;20046;-61
2024/04/09 06:20:05;;;;;;;1.30;1.30;;;;;;;14.83;60.69;97355.06;5375778;26;20004;-64
2024/04/09 06:22:32;;;;;;;1.30;1.30;;;;;;;15.02;60.03;97349.19;5388152;26;20047;-59
2024/04/09 06:25:00;;;;;;;1.27;1.27;;;;;;;14.91;62.16;97353.13;5379163;26;20477;-61
2024/04/09 06:27:27;;;;;;;1.20;1.20;;;;;;;14.77;63.45;97336.31;5403500;26;20004;-62
2024/04/09 06:29:54;;;;;;;1.20;1.20;;;;;;;14.97;62.58;97345.97;5384690;26;20084;-63
2024/04/09 06:32:21;;;;;;;1.38;1.38;;;;;;;15.37;61.31;97354.09;5401800;26;20349;-66
2024/04/09 06:34:48;;;;;;;1.27;1.27;;;;;;;15.61;60.19;97345.03;5398451;26;20007;-62
2024/04/09 06:37:15;;;;;;;1.38;1.38;;;;;;;15.93;59.22;97348.66;5390005;26;20013;-63
2024/04/09 06:39:42;;;;;;;1.42;1.42;;;;;;;16.08;58.31;97332.72;5396704;26;20015;-62
2024/04/09 06:42:10;;;;;;;1.67;1.67;;;;;;;15.97;57.13;97304.78;5400549;26;20498;-61
2024/04/09 06:44:37;;;;;;;1.42;1.42;;;;;;;16.46;55.06;97331.91;5375852;26;20012;-65
2024/04/09 06:47:05;;;;;;;1.70;1.70;;;;;;;16.10;55.35;97319.94;5374149;26;20004;-63
2024/04/09 06:49:32;;;;;;;1.48;1.48;;;;;;;15.61;54.52;97173.88;5388775;26;20014;-66
2024/04/09 06:51:59;;;;;;;1.50;1.50;;;;;;;16.28;54.28;97331.13;5398501;26;20011;-62
2024/04/09 06:54:26;;;;;;;1.30;1.30;;;;;;;15.90;54.51;97338.28;5393993;26;20592;-61
2024/04/09 06:56:53;;;;;;;1.50;1.50;;;;;;;15.88;55.92;97323.94;5370082;26;20015;-61
2024/04/09 06:59:21;;;;;;;1.40;1.40;;;;;;;16.14;54.81;97269.63;5382288;26;20013;-61
2024/04/09 07:01:48;;;;;;;1.60;1.60;;;;;;;16.53;54.71;97299.13;5454447;26;20476;-62
2024/04/09 07:04:15;;;;;;;1.48;1.48;;;;;;;17.13;53.53;97348.53;5409714;26;20246;-63
2024/04/09 07:06:43;;;;;;;1.67;1.67;;;;;;;16.97;52.86;97323.00;5468856;26;20520;-61
2024/04/09 07:09:16;;;;;;;1.55;1.55;;;;;;;17.05;52.57;97327.38;5469566;26;20464;-62
2024/04/09 07:11:47;;;;;;;1.60;1.60;;;;;;;16.65;50.99;97272.75;5455132;26;20011;-60
2024/04/09 07:14:15;;;;;;;1.80;1.80;;;;;;;17.38;50.13;97319.22;5408720;26;20067;-62
2024/04/09 07:16:46;;;;;;;1.90;1.90;;;;;;;17.45;50.02;97284.81;5440008;26;20121;-64
2024/04/09 07:19:13;;;;;;;1.70;1.70;;;;;;;17.71;48.29;97296.25;5439587;26;20015;-62
2024/04/09 07:21:40;;;;;;;1.90;1.90;;;;;;;17.46;47.69;97267.59;5425957;26;20457;-62
2024/04/09 07:24:07;;;;;;;1.88;1.88;;;;;;;18.18;47.74;97336.72;5407421;26;19996;-61
2024/04/09 07:26:34;;;;;;;1.88;1.88;;;;;;;18.47;46.90;97329.69;5468203;26;20037;-62
2024/04/09 07:29:01;;;;;;;1.88;1.88;;;;;;;18.46;47.19;97330.94;5441348;26;20005;-63
2024/04/09 07:31:28;;;;;;;1.90;1.90;;;;;;;18.50;45.52;97309.22;5433015;26;20008;-61
2024/04/09 07:33:55;;;;;;;2.00;2.00;;;;;;;18.69;45.24;97289.00;5403818;26;20039;-63
2024/04/09 07:36:22;;;;;;;2.30;2.30;;;;;;;19.10;43.25;97309.38;5406582;26;20090;-62
2024/04/09 07:38:49;;;;;;;2.00;2.00;;;;;;;18.58;44.28;97240.59;5395641;26;20346;-61
2024/04/09 07:41:17;;;;;;;2.00;2.00;;;;;;;19.13;43.09;97274.81;5429045;26;20004;-61
2024/04/09 07:43:44;;;;;;;1.95;1.95;;;;;;;18.79;42.99;97271.25;5402065;26;19999;-63
2024/04/09 07:46:11;;;;;;;1.90;1.90;;;;;;;19.43;41.14;97302.94;5430332;26;20025;-58
2024/04/09 07:48:38;;;;;;;2.08;2.08;;;;;;;19.63;40.10;97307.91;5372289;26;20347;-62
2024/04/09 07:51:05;;;;;;;2.47;2.40;;;;;;;18.06;40.45;97048.47;5397877;26;20431;-73
2024/04/09 07:53:32;;;;;;;2.08;2.08;;;;;;;19.44;40.39;97264.41;5371550;26;20003;-62
2024/04/09 07:56:09;;;;;;;2.15;2.15;;;;;;;19.70;40.18;97296.53;5403771;26;20003;-61
2024/04/09 07:58:36;;;;;;;2.00;2.00;;;;;;;19.16;40.54;97231.84;5430028;26;19999;-63
2024/04/09 08:01:04;;;;;;;2.10;2.10;;;;;;;19.72;40.05;97291.31;5385820;26;20048;-62
2024/04/09 08:03:32;;;;;;;2.10;2.10;;;;;;;19.46;40.83;97292.88;5386680;26;20039;-61
2024/04/09 08:06:00;;;;;;;2.08;2.08;;;;;;;19.49;40.03;97253.50;5393597;26;20011;-67
2024/04/09 08:08:28;;;;;;;2.25;2.25;;;;;;;20.05;39.50;97298.81;5391647;26;20224;-64
2024/04/09 08:10:58;;;;;;;2.08;2.08;;;;;;;20.36;39.23;97283.47;5376266;26;20627;-61
2024/04/09 08:13:25;;;;;;;2.20;2.20;;;;;;;20.13;40.18;97286.22;5385321;26;19996;-61
2024/04/09 08:15:54;;;;;;;2.22;2.22;;;;;;;19.93;39.59;97209.44;5400046;26;20011;-62
2024/04/09 08:18:24;;;;;;;2.17;2.17;;;;;;;19.71;39.42;97151.97;5428801;26;20000;-61
2024/04/09 08:20:51;;;;;;;2.00;2.00;;;;;;;19.83;40.25;97283.50;5400939;26;20016;-68
2024/04/09 08:23:18;;;;;;;2.20;2.20;;;;;;;19.75;39.71;97260.34;5370684;26;20076;-70
2024/04/09 08:25:45;;;;;;;2.10;2.10;;;;;;;19.80;39.74;97285.16;5390971;26;20004;-65
2024/04/09 08:28:12;;;;;;;2.20;2.20;;;;;;;19.14;40.48;97189.34;5387925;26;20409;-61
2024/04/09 08:30:40;;;;;;;1.98;1.98;;;;;;;19.43;40.16;97193.38;5390920;26;20012;-63
2024/04/09 08:33:07;;;;;;;2.33;2.30;;;;;;;20.47;39.15;97265.16;5385586;26;19999;-61
2024/04/09 08:35:34;;;;;;;2.10;2.10;;;;;;;20.85;39.08;97255.16;5453989;26;20686;-57
2024/04/09 08:38:01;;;;;;;1.98;1.98;;;;;;;20.31;38.91;97225.63;5420876;26;20008;-65
2024/04/09 08:40:32;;;;;;;2.10;2.10;;;;;;;19.79;39.11;97181.56;5394522;26;20026;-62
2024/04/09 08:42:59;;;;;;;2.60;2.50;;;;;;;20.76;38.67;97240.06;5383807;26;20370;-59
2024/04/09 08:45:28;;;;;;;2.42;2.38;;;;;;;20.86;38.29;97199.66;5409963;26;20368;-59
2024/04/09 08:47:55;;;;;;;2.50;2.40;;;;;;;21.33;37.74;97229.25;5393705;26;20028;-60
2024/04/09 08:50:24;;;;;;;2.30;2.30;;;;;;;21.73;37.17;97236.38;5392097;26;20007;-66
2024/04/09 08:53:00;;;;;;;2.08;2.08;;;;;;;21.91;36.70;97235.94;5428195;26;20046;-61
2024/04/09 08:55:31;;;;;;;2.53;2.42;;;;;;;21.92;36.82;97221.44;5428394;26;20048;-62
2024/04/09 08:57:57;;;;;;;2.45;2.35;;;;;;;22.12;36.15;97229.78;5402616;26;20018;-68
2024/04/09 09:00:25;;;;;;;2.33;2.33;;;;;;;22.27;35.90;97214.88;5400747;26;20010;-60
2024/04/09 09:02:52;;;;;;;2.33;2.30;;;;;;;22.49;34.79;97215.88;5401079;26;20010;-63
2024/04/09 09:05:23;;;;;;;2.50;2.40;;;;;;;22.16;34.92;97211.53;5395050;26;20015;-66
2024/04/09 09:08:04;;;;;;;2.30;2.30;;;;;;;22.13;35.24;97175.72;5367043;26;20012;-62
2024/04/09 09:10:34;;;;;;;2.53;2.42;;;;;;;21.79;34.85;97166.94;5384466;26;19997;-66
2024/04/09 09:13:02;;;;;;;2.45;2.38;;;;;;;22.10;35.44;97210.47;5386917;26;20016;-67
2024/04/09 09:15:30;;;;;;;2.28;2.28;;;;;;;22.15;34.86;97211.97;5395152;26;20474;-67
2024/04/09 09:17:58;;;;;;;2.60;2.50;;;;;;;22.30;34.89;97208.34;5407974;26;20036;-60
2024/04/09 09:20:25;;;;;;;2.63;2.53;;;;;;;22.29;34.84;97189.81;5413362;26;20471;-61
2024/04/09 09:22:52;;;;;;;2.42;2.35;;;;;;;22.32;35.27;97205.88;5400186;26;20011;-60
2024/04/09 09:25:22;;;;;;;2.42;2.33;;;;;;;22.55;33.80;97252.09;5397123;26;20579;-73
2024/04/09 09:28:06;;;;;;;2.78;2.67;;;;;;;22.33;34.00;97201.81;5394132;26;20052;-63
2024/04/09 09:30:41;;;;;;;2.38;2.33;;;;;;;22.22;34.02;97206.16;5418406;26;20569;-69
2024/04/09 09:33:18;;;;;;;2.47;2.38;;;;;;;22.36;33.07;97172.69;5402122;26;20142;-68
2024/04/09 09:35:50;;;;;;;2.67;2.58;;;;;;;22.43;33.73;97188.63;5430926;26;20003;-72
2024/04/09 09:38:26;;;;;;;2.60;2.50;;;;;;;21.53;34.36;97105.94;5395488;26;20015;-64
2024/04/09 09:40:54;;;;;;;2.67;2.58;;;;;;;21.94;34.19;97196.38;5436065;26;19998;-63
2024/04/09 09:43:22;;;;;;;2.78;2.67;;;;;;;21.75;34.76;97191.63;5426090;26;20016;-61
2024/04/09 09:45:51;;;;;;;2.30;2.30;;;;;;;21.52;34.73;97186.13;5397286;26;20000;-66
2024/04/09 09:48:24;;;;;;;2.50;2.40;;;;;;;20.95;34.75;97073.09;5406137;26;20076;-65
2024/04/09 09:50:52;;;;;;;2.30;2.30;;;;;;;20.54;34.55;96994.03;5398480;26;20001;-63
2024/04/09 09:53:19;;;;;;;2.22;2.22;;;;;;;21.74;35.62;97186.38;5384671;26;20453;-67
2024/04/09 09:55:53;;;;;;;2.70;2.60;;;;;;;21.95;34.21;97161.31;5415173;26;20022;-62
2024/04/09 09:58:25;;;;;;;2.67;2.58;;;;;;;22.19;33.81;97173.94;5435321;26;20012;-60
2024/04/09 10:00:53;;;;;;;2.28;2.28;;;;;;;22.51;33.58;97181.56;5406556;26;20017;-61
2024/04/09 10:03:20;;;;;;;2.30;2.30;;;;;;;22.41;34.36;97186.25;5407110;26;20007;-59
2024/04/09 10:05:48;;;;;;;2.53;2.42;;;;;;;22.75;34.45;97170.81;5407038;26;20019;-60
2024/04/09 10:08:27;;;;;;;2.80;2.70;;;;;;;22.77;34.45;97166.31;5435220;26;20134;-63
2024/04/09 10:10:54;;;;;;;2.67;2.58;;;;;;;22.88;34.47;97163.19;5406508;26;20019;-62
2024/04/09 10:13:27;;;;;;;2.30;2.30;;;;;;;22.83;34.34;97155.25;5404328;26;20007;-64
2024/04/09 10:15:56;;;;;;;2.70;2.60;;;;;;;22.67;34.07;97153.28;5401140;26;20004;-64
2024/04/09 10:18:40;;;;;;;2.50;2.40;;;;;;;22.71;33.63;97153.19;5403202;26;20036;-62
2024/04/09 10:21:09;;;;;;;2.25;2.22;;;;;;;22.64;33.42;97071.50;5391699;26;20015;-66
2024/04/09 10:23:38;;;;;;;2.78;2.67;;;;;;;23.40;33.50;97144.63;5408946;26;21104;-63
2024/04/09 10:26:05;;;;;;;2.50;2.40;;;;;;;23.01;33.92;97144.22;5402989;26;20524;-67
2024/04/09 10:28:35;;;;;;;2.33;2.33;;;;;;;23.57;32.84;97131.16;5395053;26;20985;-64
2024/04/09 10:31:08;;;;;;;2.80;2.70;;;;;;;23.75;32.54;97137.84;5384080;26;19996;-67
2024/04/09 10:33:36;;;;;;;;;;;;;;;23.89;32.70;97136.53;5402842;26;20408;-64
2024/04/09 10:36:08;;;;;;;2.80;2.70;;;;;;;23.46;32.36;97108.88;5406537;26;19925;-61
2024/04/09 10:38:41;;;;;;;2.65;2.55;;;;;;;23.71;31.90;97133.53;5406995;26;20000;-62
2024/04/09 10:41:10;;;;;;;2.80;2.70;;;;;;;24.24;31.44;97118.38;5438813;26;20013;-63
2024/04/09 10:43:37;;;;;;;3.10;3.00;;;;;;;24.27;30.88;97117.44;5412979;26;20000;-64
2024/04/09 10:46:05;;;;;;;2.90;2.80;;;;;;;24.10;31.34;97113.22;5429380;26;20028;-61
2024/04/09 10:48:41;;;;;;;2.88;2.78;;;;;;;23.37;31.00;97082.53;5442208;26;20006;-63
2024/04/09 10:51:09;;;;;;;2.92;2.83;;;;;;;23.47;30.58;97075.75;5413950;26;20070;-65
2024/04/09 10:53:36;;;;;;;3.00;2.90;;;;;;;23.78;31.42;97102.16;5398641;26;20047;-62
2024/04/09 10:56:04;;;;;;;2.83;2.72;;;;;;;23.79;30.60;97098.06;5381029;26;20127;-66
2024/04/09 10:58:31;;;;;;;3.03;2.92;;;;;;;24.00;31.17;97096.59;5381906;26;20733;-65
2024/04/09 11:00:59;;;;;;;2.60;2.50;;;;;;;23.15;31.28;97109.88;5371379;26;20004;-68
2024/04/09 11:03:26;;;;;;;2.80;2.70;;;;;;;22.76;31.51;96935.16;5382266;26;20004;-67
2024/04/09 11:05:54;;;;;;;2.53;2.42;;;;;;;23.75;30.32;97043.66;5399041;26;20342;-63
2024/04/09 11:08:30;;;;;;;3.08;2.97;;;;;;;24.27;30.20;97072.16;5406264;26;20000;-68
2024/04/09 11:11:02;;;;;;;2.70;2.60;;;;;;;24.31;30.12;97060.69;5397425;26;20003;-61
2024/04/09 11:13:31;;;;;;;3.00;2.90;;;;;;;24.86;30.29;97091.81;5395800;26;20028;-71
2024/04/09 11:16:01;;;;;;;3.10;3.00;;;;;;;24.40;29.74;97052.25;5398360;26;20233;-64
2024/04/09 11:18:29;;;;;;;3.05;2.95;;;;;;;23.85;30.89;97082.13;5383698;26;20373;-64
2024/04/09 11:20:58;;;;;;;2.85;2.75;;;;;;;23.87;30.20;97048.47;5391985;26;20004;-62
2024/04/09 11:23:25;;;;;;;2.53;2.42;;;;;;;24.37;30.09;97075.84;5391940;26;20006;-63
2024/04/09 11:25:54;;;;;;;2.72;2.63;;;;;;;24.22;30.81;97074.75;5397969;26;20451;-62
2024/04/09 11:28:22;;;;;;;3.22;3.13;;;;;;;24.42;29.60;97061.84;5385119;26;20033;-63
2024/04/09 11:30:58;;;;;;;2.85;2.75;;;;;;;24.65;27.95;97069.91;5403210;26;20338;-63
2024/04/09 11:33:28;;;;;;;2.72;2.63;;;;;;;24.04;30.70;97069.75;5405070;26;20427;-64
2024/04/09 11:35:57;;;;;;;3.10;3.00;;;;;;;24.44;30.10;97065.03;5432072;26;20000;-61
2024/04/09 11:38:25;;;;;;;3.08;2.97;;;;;;;24.07;29.98;97023.56;5405793;26;20015;-62
2024/04/09 11:40:53;;;;;;;2.70;2.60;;;;;;;24.06;29.88;97055.91;5404910;26;20342;-61
2024/04/09 11:43:23;;;;;;;2.95;2.85;;;;;;;24.35;29.67;97055.69;5405998;26;20003;-61